createdAt,value
2023-01-17T00:05:14.999Z,0.70
2023-01-17T00:10:21.887Z,0.80
2023-01-17T00:15:24.563Z,0.63
2023-01-17T00:20:48.125Z,0.60
2023-01-17T00:26:04.951Z,0.60
2023-01-17T00:31:09.068Z,0.60
2023-01-17T00:36:12.479Z,0.70
2023-01-17T00:41:15.391Z,0.50
2023-01-17T00:46:36.178Z,0.60
2023-01-17T00:51:57.255Z,0.40
2023-01-17T00:57:17.706Z,0.40
2023-01-17T01:02:38.433Z,0.30
2023-01-17T01:07:58.541Z,0.40
2023-01-17T01:13:18.798Z,0.30
2023-01-17T01:18:41.368Z,0.30
2023-01-17T01:24:01.705Z,0.20
2023-01-17T01:29:21.776Z,0.30
2023-01-17T01:34:23.644Z,0.30
2023-01-17T01:39:25.382Z,0.40
2023-01-17T01:44:48.308Z,0.30
2023-01-17T01:49:53.158Z,0.30
2023-01-17T01:55:04.326Z,0.30
2023-01-17T02:00:21.857Z,0.20
2023-01-17T02:05:25.227Z,0.30
2023-01-17T02:10:26.952Z,0.20
2023-01-17T02:15:42.011Z,0.22
2023-01-17T02:21:01.812Z,0.20
2023-01-17T02:26:07.796Z,0.43
2023-01-17T02:31:32.273Z,0.30
2023-01-17T02:36:45.155Z,0.32
2023-01-17T02:41:53.655Z,0.40
2023-01-17T02:46:57.870Z,0.40
2023-01-17T02:52:14.287Z,0.30
2023-01-17T02:57:37.118Z,0.38
2023-01-17T03:02:48.871Z,0.35
2023-01-17T03:07:52.044Z,0.20
2023-01-17T03:12:59.606Z,0.30
2023-01-17T03:18:05.417Z,0.30
2023-01-17T03:23:09.588Z,0.22
2023-01-17T03:28:11.411Z,0.30
2023-01-17T03:33:13.086Z,0.30
2023-01-17T03:38:15.235Z,0.30
2023-01-17T03:43:17.006Z,0.20
2023-01-17T03:48:18.803Z,0.20
2023-01-17T03:53:20.832Z,0.20
2023-01-17T03:58:23.793Z,0.40
2023-01-17T04:03:25.909Z,0.40
2023-01-17T04:08:30.000Z,0.32
2023-01-17T04:13:31.691Z,0.45
2023-01-17T04:18:33.449Z,0.50
2023-01-17T04:23:35.744Z,0.40
2023-01-17T04:28:38.977Z,0.45
2023-01-17T04:33:40.744Z,0.35
2023-01-17T04:38:42.637Z,0.40
2023-01-17T04:43:45.456Z,0.60
2023-01-17T04:48:47.192Z,0.77
2023-01-17T04:53:49.253Z,0.88
2023-01-17T04:58:50.952Z,0.50
2023-01-17T05:03:52.670Z,0.70
2023-01-17T05:08:54.781Z,0.70
2023-01-17T05:13:56.506Z,0.50
2023-01-17T05:18:58.241Z,0.70
2023-01-17T05:24:00.477Z,0.70
2023-01-17T05:29:02.233Z,0.80
2023-01-17T05:34:07.175Z,0.60
2023-01-17T05:39:10.792Z,0.88
2023-01-17T05:44:12.847Z,1.05
2023-01-17T05:49:14.572Z,0.77
2023-01-17T05:54:16.663Z,1.30
2023-01-17T05:59:25.618Z,0.77
2023-01-17T06:04:38.002Z,0.75
2023-01-17T06:09:39.750Z,0.90
2023-01-17T06:14:41.771Z,1.00
2023-01-17T06:19:43.638Z,0.93
2023-01-17T06:24:46.785Z,1.20
2023-01-17T06:29:48.600Z,0.80
2023-01-17T06:34:52.049Z,1.00
2023-01-17T06:39:56.561Z,1.02
2023-01-17T06:44:58.366Z,1.20
2023-01-17T06:50:01.289Z,0.90
2023-01-17T06:55:03.101Z,0.73
2023-01-17T07:00:05.327Z,0.82
2023-01-17T07:05:11.363Z,0.98
2023-01-17T07:10:14.662Z,0.75
2023-01-17T07:15:16.416Z,0.90
2023-01-17T07:20:18.692Z,1.10
2023-01-17T07:25:20.406Z,1.30
2023-01-17T07:30:22.290Z,0.90
2023-01-17T07:35:27.887Z,0.90
2023-01-17T07:40:29.928Z,1.08
2023-01-17T07:45:31.628Z,1.02
2023-01-17T07:50:33.419Z,0.90
2023-01-17T07:55:36.879Z,0.75
2023-01-17T08:00:38.623Z,1.15
2023-01-17T08:05:43.276Z,1.00
2023-01-17T08:10:45.357Z,1.20
2023-01-17T08:15:49.018Z,1.05
2023-01-17T08:20:50.726Z,1.05
2023-01-17T08:25:52.804Z,0.80
2023-01-17T08:30:54.616Z,0.90
2023-01-17T08:35:56.312Z,1.20
2023-01-17T08:41:01.055Z,0.90
2023-01-17T08:46:03.000Z,1.00
2023-01-17T08:51:04.999Z,0.90
2023-01-17T08:56:07.234Z,1.17
2023-01-17T09:01:09.101Z,1.00
2023-01-17T09:06:13.355Z,0.93
2023-01-17T09:11:16.876Z,1.13
2023-01-17T09:16:18.873Z,1.20
2023-01-17T09:21:20.704Z,1.00
2023-01-17T09:26:28.443Z,0.93
2023-01-17T09:31:30.313Z,1.20
2023-01-17T09:36:34.751Z,0.95
2023-01-17T09:41:48.483Z,1.00
2023-01-17T09:46:53.857Z,1.10
2023-01-17T09:51:57.188Z,0.90
2023-01-17T09:57:20.138Z,1.00
2023-01-17T10:02:43.501Z,0.88
2023-01-17T10:07:57.453Z,1.00
2023-01-17T10:13:24.246Z,1.13
2023-01-17T10:18:40.959Z,1.17
2023-01-17T10:24:03.799Z,1.40
2023-01-17T10:29:15.047Z,1.13
2023-01-17T10:34:29.323Z,1.00
2023-01-17T10:39:31.249Z,1.10
2023-01-17T10:44:55.931Z,1.10
2023-01-17T10:49:59.356Z,1.00
2023-01-17T10:55:39.056Z,1.17
2023-01-17T11:00:43.849Z,1.10
2023-01-17T11:06:14.842Z,1.20
2023-01-17T11:11:17.388Z,0.93
2023-01-17T11:16:26.708Z,1.05
2023-01-17T11:21:29.453Z,1.20
2023-01-17T11:26:34.774Z,0.90
2023-01-17T11:31:39.476Z,0.82
2023-01-17T11:36:41.875Z,1.00
2023-01-17T11:41:45.651Z,1.17
2023-01-17T11:46:47.732Z,1.17
2023-01-17T11:51:49.582Z,1.10
2023-01-17T11:57:00.710Z,1.08
2023-01-17T12:02:24.402Z,0.90
2023-01-17T12:07:40.707Z,1.10
2023-01-17T12:13:15.077Z,0.82
2023-01-17T12:18:40.650Z,1.00
2023-01-17T12:23:57.624Z,0.68
2023-01-17T12:29:21.026Z,0.70
2023-01-17T12:34:41.268Z,0.82
2023-01-17T12:39:52.767Z,0.90
2023-01-17T12:45:20.278Z,0.70
2023-01-17T12:50:44.598Z,0.70
2023-01-17T12:56:40.182Z,0.85
2023-01-17T13:01:57.229Z,0.93
2023-01-17T13:06:59.067Z,0.90
2023-01-17T13:12:07.713Z,1.33
2023-01-17T13:17:31.529Z,0.70
2023-01-17T13:22:33.894Z,0.60
2023-01-17T13:28:14.205Z,0.90
2023-01-17T13:33:37.131Z,0.75
2023-01-17T13:38:57.567Z,0.80
2023-01-17T13:44:19.513Z,1.20
2023-01-17T13:49:34.306Z,0.88
2023-01-17T13:54:45.100Z,0.80
2023-01-17T13:59:46.918Z,0.95
2023-01-17T14:05:09.680Z,0.90
2023-01-17T14:10:34.167Z,0.65
2023-01-17T14:15:49.975Z,0.47
2023-01-17T14:21:05.767Z,0.70
2023-01-17T14:26:45.207Z,0.68
2023-01-17T14:31:47.167Z,0.60
2023-01-17T14:36:48.879Z,0.93
2023-01-17T14:41:51.800Z,0.85
2023-01-17T14:46:53.539Z,0.60
2023-01-17T14:52:02.873Z,0.82
2023-01-17T14:57:29.145Z,0.93
2023-01-17T15:02:32.091Z,1.20
2023-01-17T15:07:36.383Z,0.85
2023-01-17T15:12:38.753Z,1.52
2023-01-17T15:17:40.448Z,1.80
2023-01-17T15:22:42.306Z,1.00
2023-01-17T15:27:44.230Z,1.00
2023-01-17T15:32:51.273Z,2.10
2023-01-17T15:37:54.849Z,0.88
2023-01-17T15:42:59.459Z,1.20
2023-01-17T15:48:33.437Z,1.13
2023-01-17T15:53:39.543Z,1.00
2023-01-17T15:58:41.309Z,1.77
2023-01-17T16:03:53.911Z,1.00
2023-01-17T16:08:55.716Z,1.50
2023-01-17T16:13:57.411Z,1.90
2023-01-17T16:19:02.117Z,1.23
2023-01-17T16:24:05.734Z,1.63
2023-01-17T16:29:08.176Z,1.35
2023-01-17T16:34:12.462Z,1.63
2023-01-17T16:39:15.340Z,1.70
2023-01-17T16:44:18.536Z,1.23
2023-01-17T16:49:20.297Z,1.55
2023-01-17T16:54:22.084Z,2.15
2023-01-17T16:59:23.836Z,2.78
2023-01-17T17:04:25.566Z,1.80
2023-01-17T17:09:27.299Z,1.75
2023-01-17T17:14:29.269Z,2.60
2023-01-17T17:19:31.037Z,2.38
2023-01-17T17:24:33.214Z,2.35
2023-01-17T17:29:35.162Z,2.75
2023-01-17T17:34:38.227Z,2.95
2023-01-17T17:39:40.035Z,2.20
2023-01-17T17:44:41.781Z,2.40
2023-01-17T17:49:43.711Z,3.22
2023-01-17T17:54:45.473Z,3.50
2023-01-17T17:59:47.135Z,4.28
2023-01-17T18:04:48.866Z,3.80
2023-01-17T18:09:50.588Z,4.30
2023-01-17T18:14:52.340Z,4.40
2023-01-17T18:19:54.119Z,4.68
2023-01-17T18:24:55.834Z,6.00
2023-01-17T18:29:58.893Z,4.72
2023-01-17T18:35:00.591Z,3.92
2023-01-17T18:40:02.367Z,3.92
2023-01-17T18:45:04.539Z,5.07
2023-01-17T18:50:06.455Z,4.85
2023-01-17T18:55:08.775Z,4.88
2023-01-17T19:00:11.091Z,4.35
2023-01-17T19:05:14.747Z,5.07
2023-01-17T19:10:16.531Z,5.15
2023-01-17T19:15:18.196Z,5.82
2023-01-17T19:20:19.906Z,9.02
2023-01-17T19:25:22.893Z,5.65
2023-01-17T19:30:24.703Z,5.50
2023-01-17T19:35:26.381Z,4.90
2023-01-17T19:40:28.078Z,6.10
2023-01-17T19:45:30.132Z,5.60
2023-01-17T19:50:31.899Z,6.82
2023-01-17T19:55:38.697Z,7.93
2023-01-17T20:00:46.495Z,7.03
2023-01-17T20:05:56.563Z,5.85
2023-01-17T20:11:10.007Z,5.93
2023-01-17T20:21:30.523Z,5.75
2023-01-17T20:26:35.532Z,6.07
2023-01-17T20:31:38.660Z,6.07
2023-01-17T20:36:42.061Z,8.35
2023-01-17T20:41:46.350Z,6.47
2023-01-17T20:46:48.378Z,6.15
2023-01-17T20:51:50.338Z,6.30
2023-01-17T20:56:52.217Z,7.30
2023-01-17T21:01:53.993Z,7.63
2023-01-17T21:06:56.504Z,7.43
2023-01-17T21:12:01.429Z,7.45
2023-01-17T21:17:03.550Z,8.32
2023-01-17T21:22:05.747Z,9.05
2023-01-17T21:27:07.602Z,10.00
2023-01-17T21:32:09.392Z,10.07
2023-01-17T21:37:11.105Z,9.82
2023-01-17T21:42:12.910Z,10.48
2023-01-17T21:47:14.653Z,14.57
2023-01-17T21:52:19.161Z,11.80
2023-01-17T21:57:40.842Z,11.75
2023-01-17T22:02:44.738Z,10.65
2023-01-17T22:08:05.554Z,9.13
2023-01-17T22:13:07.358Z,9.93
2023-01-17T22:18:09.663Z,9.73
2023-01-17T22:23:12.013Z,9.10
2023-01-17T22:28:14.074Z,9.55
2023-01-17T22:33:16.232Z,9.00
2023-01-17T22:38:18.274Z,8.57
2023-01-17T22:43:20.391Z,8.93
2023-01-17T22:48:22.390Z,8.02
2023-01-17T22:53:24.756Z,9.00
2023-01-17T22:58:28.831Z,9.95
2023-01-17T23:03:34.462Z,10.35
2023-01-17T23:08:37.384Z,9.68
2023-01-17T23:13:39.492Z,9.85
2023-01-17T23:19:00.212Z,9.60
2023-01-17T23:24:02.760Z,9.20
2023-01-17T23:29:04.504Z,8.85
2023-01-17T23:34:06.248Z,8.80
2023-01-17T23:39:08.094Z,8.82
2023-01-17T23:44:09.980Z,9.43
2023-01-17T23:49:11.778Z,8.40
2023-01-17T23:54:13.421Z,8.40
2023-01-17T23:59:15.242Z,7.75
